sensor_id;sensor_type;location;lat;lon;timestamp;temperature;humidity
7784;DHT22;19359;51.402;6.778;2023-01-05T00:00:10;11.90;1.00
7784;DHT22;19359;51.402;6.778;2023-01-05T00:02:36;12.00;1.00
7784;DHT22;19359;51.402;6.778;2023-01-05T00:05:04;11.90;1.00
7784;DHT22;19359;51.402;6.778;2023-01-05T00:07:30;11.90;1.00
7784;DHT22;19359;51.402;6.778;2023-01-05T00:09:58;11.70;1.00
7784;DHT22;19359;51.402;6.778;2023-01-05T00:12:25;11.90;1.00
7784;DHT22;19359;51.402;6.778;2023-01-05T00:15:09;11.90;1.00
7784;DHT22;19359;51.402;6.778;2023-01-05T00:17:54;11.80;1.00
7784;DHT22;19359;51.402;6.778;2023-01-05T00:20:38;11.80;1.00
7784;DHT22;19359;51.402;6.778;2023-01-05T00:25:50;11.70;1.00
7784;DHT22;19359;51.402;6.778;2023-01-05T00:28:17;11.80;1.00
7784;DHT22;19359;51.402;6.778;2023-01-05T00:30:45;11.80;1.00
7784;DHT22;19359;51.402;6.778;2023-01-05T00:33:13;11.80;1.00
7784;DHT22;19359;51.402;6.778;2023-01-05T00:35:40;11.70;1.00
7784;DHT22;19359;51.402;6.778;2023-01-05T00:38:07;11.80;1.00
7784;DHT22;19359;51.402;6.778;2023-01-05T00:40:35;11.80;1.00
7784;DHT22;19359;51.402;6.778;2023-01-05T00:43:03;11.80;1.00
7784;DHT22;19359;51.402;6.778;2023-01-05T00:45:30;11.80;1.00
7784;DHT22;19359;51.402;6.778;2023-01-05T00:47:56;11.90;1.00
7784;DHT22;19359;51.402;6.778;2023-01-05T00:50:23;11.90;1.00
7784;DHT22;19359;51.402;6.778;2023-01-05T00:52:50;11.80;1.00
7784;DHT22;19359;51.402;6.778;2023-01-05T00:55:17;11.80;1.00
7784;DHT22;19359;51.402;6.778;2023-01-05T00:57:43;11.70;1.00
7784;DHT22;19359;51.402;6.778;2023-01-05T01:00:14;11.70;1.00
7784;DHT22;19359;51.402;6.778;2023-01-05T01:02:42;11.60;1.00
7784;DHT22;19359;51.402;6.778;2023-01-05T01:05:09;11.70;1.00
7784;DHT22;19359;51.402;6.778;2023-01-05T01:07:36;11.60;1.00
7784;DHT22;19359;51.402;6.778;2023-01-05T01:10:03;11.60;1.00
7784;DHT22;19359;51.402;6.778;2023-01-05T01:12:30;11.60;1.00
7784;DHT22;19359;51.402;6.778;2023-01-05T01:14:56;11.60;1.00
7784;DHT22;19359;51.402;6.778;2023-01-05T01:17:24;11.90;1.00
7784;DHT22;19359;51.402;6.778;2023-01-05T01:19:51;11.60;1.00
7784;DHT22;19359;51.402;6.778;2023-01-05T01:22:18;11.60;1.00
7784;DHT22;19359;51.402;6.778;2023-01-05T01:24:44;12.20;1.00
7784;DHT22;19359;51.402;6.778;2023-01-05T01:27:11;11.50;1.00
7784;DHT22;19359;51.402;6.778;2023-01-05T01:29:38;11.80;1.00
7784;DHT22;19359;51.402;6.778;2023-01-05T01:32:05;11.50;1.00
7784;DHT22;19359;51.402;6.778;2023-01-05T01:34:33;12.70;1.00
7784;DHT22;19359;51.402;6.778;2023-01-05T01:36:59;12.10;1.00
7784;DHT22;19359;51.402;6.778;2023-01-05T01:39:26;11.50;1.00
7784;DHT22;19359;51.402;6.778;2023-01-05T01:41:53;11.50;1.00
7784;DHT22;19359;51.402;6.778;2023-01-05T01:47:36;11.50;1.00
7784;DHT22;19359;51.402;6.778;2023-01-05T01:50:12;11.30;1.00
7784;DHT22;19359;51.402;6.778;2023-01-05T01:52:40;11.40;1.00
7784;DHT22;19359;51.402;6.778;2023-01-05T01:55:07;11.40;1.00
7784;DHT22;19359;51.402;6.778;2023-01-05T01:57:35;11.40;1.00
7784;DHT22;19359;51.402;6.778;2023-01-05T02:00:08;11.50;1.00
7784;DHT22;19359;51.402;6.778;2023-01-05T02:02:35;11.40;1.00
7784;DHT22;19359;51.402;6.778;2023-01-05T02:05:05;11.40;1.00
7784;DHT22;19359;51.402;6.778;2023-01-05T02:07:38;11.40;1.00
7784;DHT22;19359;51.402;6.778;2023-01-05T02:10:06;11.40;1.00
7784;DHT22;19359;51.402;6.778;2023-01-05T02:12:37;11.40;1.00
7784;DHT22;19359;51.402;6.778;2023-01-05T02:15:17;11.40;1.00
7784;DHT22;19359;51.402;6.778;2023-01-05T02:17:57;11.40;1.00
7784;DHT22;19359;51.402;6.778;2023-01-05T02:20:41;11.30;1.00
7784;DHT22;19359;51.402;6.778;2023-01-05T02:29:48;12.00;1.00
7784;DHT22;19359;51.402;6.778;2023-01-05T02:32:19;11.30;1.00
7784;DHT22;19359;51.402;6.778;2023-01-05T02:34:51;11.20;1.00
7784;DHT22;19359;51.402;6.778;2023-01-05T02:37:27;11.50;1.00
7784;DHT22;19359;51.402;6.778;2023-01-05T02:39:58;11.30;1.00
7784;DHT22;19359;51.402;6.778;2023-01-05T02:42:27;11.30;1.00
7784;DHT22;19359;51.402;6.778;2023-01-05T02:44:55;11.30;1.00
7784;DHT22;19359;51.402;6.778;2023-01-05T02:47:37;11.20;1.00
7784;DHT22;19359;51.402;6.778;2023-01-05T02:50:09;11.20;1.00
7784;DHT22;19359;51.402;6.778;2023-01-05T02:52:39;11.20;1.00
7784;DHT22;19359;51.402;6.778;2023-01-05T02:55:10;11.20;1.00
7784;DHT22;19359;51.402;6.778;2023-01-05T02:57:42;11.20;1.00
7784;DHT22;19359;51.402;6.778;2023-01-05T03:00:17;11.20;1.00
7784;DHT22;19359;51.402;6.778;2023-01-05T03:02:47;11.20;1.00
7784;DHT22;19359;51.402;6.778;2023-01-05T03:05:18;11.10;1.00
7784;DHT22;19359;51.402;6.778;2023-01-05T03:07:47;11.10;1.00
7784;DHT22;19359;51.402;6.778;2023-01-05T03:10:16;11.10;1.00
7784;DHT22;19359;51.402;6.778;2023-01-05T03:13:04;11.10;1.00
7784;DHT22;19359;51.402;6.778;2023-01-05T03:15:50;11.10;1.00
7784;DHT22;19359;51.402;6.778;2023-01-05T03:18:25;11.10;1.00
7784;DHT22;19359;51.402;6.778;2023-01-05T03:20:53;11.10;1.00
7784;DHT22;19359;51.402;6.778;2023-01-05T03:23:20;11.00;1.00
7784;DHT22;19359;51.402;6.778;2023-01-05T03:26:06;11.10;1.00
7784;DHT22;19359;51.402;6.778;2023-01-05T03:28:53;11.10;1.00
7784;DHT22;19359;51.402;6.778;2023-01-05T03:31:44;11.10;1.00
7784;DHT22;19359;51.402;6.778;2023-01-05T03:34:38;11.10;1.00
7784;DHT22;19359;51.402;6.778;2023-01-05T03:37:30;11.10;1.00
7784;DHT22;19359;51.402;6.778;2023-01-05T03:39:58;11.10;1.00
7784;DHT22;19359;51.402;6.778;2023-01-05T03:42:28;11.40;1.00
7784;DHT22;19359;51.402;6.778;2023-01-05T03:44:55;11.10;1.00
7784;DHT22;19359;51.402;6.778;2023-01-05T03:47:22;11.10;1.00
7784;DHT22;19359;51.402;6.778;2023-01-05T03:49:51;11.10;1.00
7784;DHT22;19359;51.402;6.778;2023-01-05T03:52:17;11.00;1.00
7784;DHT22;19359;51.402;6.778;2023-01-05T03:54:44;11.10;1.00
7784;DHT22;19359;51.402;6.778;2023-01-05T03:57:11;11.20;1.00
7784;DHT22;19359;51.402;6.778;2023-01-05T03:59:37;10.90;1.00
7784;DHT22;19359;51.402;6.778;2023-01-05T04:02:04;10.90;1.00
7784;DHT22;19359;51.402;6.778;2023-01-05T04:04:31;10.90;1.00
7784;DHT22;19359;51.402;6.778;2023-01-05T04:06:59;10.90;1.00
7784;DHT22;19359;51.402;6.778;2023-01-05T04:09:25;10.90;1.00
7784;DHT22;19359;51.402;6.778;2023-01-05T04:11:52;10.90;1.00
7784;DHT22;19359;51.402;6.778;2023-01-05T04:14:19;10.80;1.00
7784;DHT22;19359;51.402;6.778;2023-01-05T04:16:45;10.90;1.00
7784;DHT22;19359;51.402;6.778;2023-01-05T04:19:12;11.00;1.00
7784;DHT22;19359;51.402;6.778;2023-01-05T04:21:39;10.90;1.00
7784;DHT22;19359;51.402;6.778;2023-01-05T04:24:08;11.60;1.00
7784;DHT22;19359;51.402;6.778;2023-01-05T04:26:35;10.90;1.00
7784;DHT22;19359;51.402;6.778;2023-01-05T04:29:02;10.80;1.00
7784;DHT22;19359;51.402;6.778;2023-01-05T04:31:29;10.80;1.00
7784;DHT22;19359;51.402;6.778;2023-01-05T04:33:56;10.80;1.00
7784;DHT22;19359;51.402;6.778;2023-01-05T04:36:23;10.70;1.00
7784;DHT22;19359;51.402;6.778;2023-01-05T04:38:50;10.70;1.00
7784;DHT22;19359;51.402;6.778;2023-01-05T04:41:18;10.70;1.00
7784;DHT22;19359;51.402;6.778;2023-01-05T04:43:44;10.70;1.00
7784;DHT22;19359;51.402;6.778;2023-01-05T04:46:11;10.60;1.00
7784;DHT22;19359;51.402;6.778;2023-01-05T04:48:38;10.40;1.00
7784;DHT22;19359;51.402;6.778;2023-01-05T04:51:05;10.60;1.00
7784;DHT22;19359;51.402;6.778;2023-01-05T04:53:31;10.30;1.00
7784;DHT22;19359;51.402;6.778;2023-01-05T04:55:58;10.50;1.00
7784;DHT22;19359;51.402;6.778;2023-01-05T04:58:26;10.50;1.00
7784;DHT22;19359;51.402;6.778;2023-01-05T05:00:53;10.50;1.00
7784;DHT22;19359;51.402;6.778;2023-01-05T05:03:20;10.50;1.00
7784;DHT22;19359;51.402;6.778;2023-01-05T05:05:47;10.60;1.00
7784;DHT22;19359;51.402;6.778;2023-01-05T05:08:13;10.60;1.00
7784;DHT22;19359;51.402;6.778;2023-01-05T05:10:40;10.60;1.00
7784;DHT22;19359;51.402;6.778;2023-01-05T05:13:07;10.60;1.00
7784;DHT22;19359;51.402;6.778;2023-01-05T05:15:35;10.70;1.00
7784;DHT22;19359;51.402;6.778;2023-01-05T05:18:01;10.60;1.00
7784;DHT22;19359;51.402;6.778;2023-01-05T05:20:28;10.60;1.00
7784;DHT22;19359;51.402;6.778;2023-01-05T05:22:55;10.50;1.00
7784;DHT22;19359;51.402;6.778;2023-01-05T05:25:21;10.50;1.00
7784;DHT22;19359;51.402;6.778;2023-01-05T05:27:48;10.50;1.00
7784;DHT22;19359;51.402;6.778;2023-01-05T05:30:15;10.40;1.00
7784;DHT22;19359;51.402;6.778;2023-01-05T05:32:43;10.40;1.00
7784;DHT22;19359;51.402;6.778;2023-01-05T05:35:10;10.40;1.00
7784;DHT22;19359;51.402;6.778;2023-01-05T05:40:04;10.40;1.00
7784;DHT22;19359;51.402;6.778;2023-01-05T05:42:31;10.40;1.00
7784;DHT22;19359;51.402;6.778;2023-01-05T05:44:58;10.60;1.00
7784;DHT22;19359;51.402;6.778;2023-01-05T05:47:25;10.50;1.00
7784;DHT22;19359;51.402;6.778;2023-01-05T05:49:53;10.30;1.00
7784;DHT22;19359;51.402;6.778;2023-01-05T05:52:19;10.30;1.00
7784;DHT22;19359;51.402;6.778;2023-01-05T05:54:46;10.20;1.00
7784;DHT22;19359;51.402;6.778;2023-01-05T05:57:13;10.40;1.00
7784;DHT22;19359;51.402;6.778;2023-01-05T05:59:42;10.40;1.00
7784;DHT22;19359;51.402;6.778;2023-01-05T06:02:08;10.40;1.00
7784;DHT22;19359;51.402;6.778;2023-01-05T06:04:35;10.40;1.00
7784;DHT22;19359;51.402;6.778;2023-01-05T06:07:03;10.50;37.70
7784;DHT22;19359;51.402;6.778;2023-01-05T06:09:30;10.30;1.00
7784;DHT22;19359;51.402;6.778;2023-01-05T06:11:57;10.20;97.90
7784;DHT22;19359;51.402;6.778;2023-01-05T06:14:23;10.30;1.00
7784;DHT22;19359;51.402;6.778;2023-01-05T06:16:50;10.30;1.00
7784;DHT22;19359;51.402;6.778;2023-01-05T06:19:17;10.20;99.90
7784;DHT22;19359;51.402;6.778;2023-01-05T06:21:43;10.20;83.30
7784;DHT22;19359;51.402;6.778;2023-01-05T06:24:11;10.20;99.90
7784;DHT22;19359;51.402;6.778;2023-01-05T06:26:38;10.20;99.90
7784;DHT22;19359;51.402;6.778;2023-01-05T06:29:05;9.90;1.00
7784;DHT22;19359;51.402;6.778;2023-01-05T06:31:31;10.20;99.90
7784;DHT22;19359;51.402;6.778;2023-01-05T06:33:58;10.30;1.00
7784;DHT22;19359;51.402;6.778;2023-01-05T06:36:25;9.90;99.90
7784;DHT22;19359;51.402;6.778;2023-01-05T06:38:52;10.10;92.40
7784;DHT22;19359;51.402;6.778;2023-01-05T06:41:20;10.10;1.00
7784;DHT22;19359;51.402;6.778;2023-01-05T06:43:46;10.00;99.90
7784;DHT22;19359;51.402;6.778;2023-01-05T06:46:13;10.00;99.90
7784;DHT22;19359;51.402;6.778;2023-01-05T06:48:40;10.20;1.00
7784;DHT22;19359;51.402;6.778;2023-01-05T06:51:06;10.00;1.00
7784;DHT22;19359;51.402;6.778;2023-01-05T06:53:33;9.80;1.00
7784;DHT22;19359;51.402;6.778;2023-01-05T06:56:00;10.00;1.00
7784;DHT22;19359;51.402;6.778;2023-01-05T06:58:28;10.00;1.00
7784;DHT22;19359;51.402;6.778;2023-01-05T07:00:54;9.80;1.00
7784;DHT22;19359;51.402;6.778;2023-01-05T07:03:21;10.00;1.00
7784;DHT22;19359;51.402;6.778;2023-01-05T07:05:49;10.00;1.00
7784;DHT22;19359;51.402;6.778;2023-01-05T07:08:16;9.90;1.00
7784;DHT22;19359;51.402;6.778;2023-01-05T07:10:43;9.90;1.00
7784;DHT22;19359;51.402;6.778;2023-01-05T07:13:10;10.50;1.00
7784;DHT22;19359;51.402;6.778;2023-01-05T07:15:38;9.90;99.90
7784;DHT22;19359;51.402;6.778;2023-01-05T07:18:05;9.90;29.50
7784;DHT22;19359;51.402;6.778;2023-01-05T07:20:31;10.00;1.00
7784;DHT22;19359;51.402;6.778;2023-01-05T07:22:58;9.90;99.90
7784;DHT22;19359;51.402;6.778;2023-01-05T07:25:25;10.30;1.00
7784;DHT22;19359;51.402;6.778;2023-01-05T07:27:55;10.00;74.30
7784;DHT22;19359;51.402;6.778;2023-01-05T07:30:22;10.00;1.00
7784;DHT22;19359;51.402;6.778;2023-01-05T07:32:50;10.10;1.00
7784;DHT22;19359;51.402;6.778;2023-01-05T07:35:17;10.00;1.00
7784;DHT22;19359;51.402;6.778;2023-01-05T07:37:44;10.10;1.00
7784;DHT22;19359;51.402;6.778;2023-01-05T07:40:11;10.10;1.00
7784;DHT22;19359;51.402;6.778;2023-01-05T07:42:38;9.90;1.00
7784;DHT22;19359;51.402;6.778;2023-01-05T07:45:05;10.30;1.00
7784;DHT22;19359;51.402;6.778;2023-01-05T07:47:32;10.20;1.00
7784;DHT22;19359;51.402;6.778;2023-01-05T07:50:00;10.30;1.00
7784;DHT22;19359;51.402;6.778;2023-01-05T07:52:27;10.10;1.80
7784;DHT22;19359;51.402;6.778;2023-01-05T07:54:56;10.00;1.00
7784;DHT22;19359;51.402;6.778;2023-01-05T07:57:23;10.10;1.00
7784;DHT22;19359;51.402;6.778;2023-01-05T07:59:50;10.00;78.80
7784;DHT22;19359;51.402;6.778;2023-01-05T08:02:16;10.20;56.50
7784;DHT22;19359;51.402;6.778;2023-01-05T08:07:11;10.10;1.00
7784;DHT22;19359;51.402;6.778;2023-01-05T08:09:40;10.00;1.00
7784;DHT22;19359;51.402;6.778;2023-01-05T08:12:24;10.20;1.00
7784;DHT22;19359;51.402;6.778;2023-01-05T08:14:51;10.20;1.00
7784;DHT22;19359;51.402;6.778;2023-01-05T08:17:17;10.00;97.90
7784;DHT22;19359;51.402;6.778;2023-01-05T08:19:45;10.00;1.00
7784;DHT22;19359;51.402;6.778;2023-01-05T08:22:13;10.20;1.00
7784;DHT22;19359;51.402;6.778;2023-01-05T08:24:40;10.20;1.00
7784;DHT22;19359;51.402;6.778;2023-01-05T08:27:06;10.20;1.00
7784;DHT22;19359;51.402;6.778;2023-01-05T08:29:33;10.10;1.00
7784;DHT22;19359;51.402;6.778;2023-01-05T08:32:00;10.00;1.00
7784;DHT22;19359;51.402;6.778;2023-01-05T08:34:27;10.20;99.90
7784;DHT22;19359;51.402;6.778;2023-01-05T08:36:53;10.30;99.90
7784;DHT22;19359;51.402;6.778;2023-01-05T08:39:22;10.60;99.90
7784;DHT22;19359;51.402;6.778;2023-01-05T08:41:48;10.40;99.90
7784;DHT22;19359;51.402;6.778;2023-01-05T08:44:15;10.10;99.90
7784;DHT22;19359;51.402;6.778;2023-01-05T08:46:42;10.40;99.90
7784;DHT22;19359;51.402;6.778;2023-01-05T08:49:08;10.50;99.90
7784;DHT22;19359;51.402;6.778;2023-01-05T08:51:35;10.30;99.90
7784;DHT22;19359;51.402;6.778;2023-01-05T08:54:03;10.40;99.90
7784;DHT22;19359;51.402;6.778;2023-01-05T08:56:31;10.40;99.90
7784;DHT22;19359;51.402;6.778;2023-01-05T08:58:57;10.40;99.90
7784;DHT22;19359;51.402;6.778;2023-01-05T09:01:25;10.50;99.90
7784;DHT22;19359;51.402;6.778;2023-01-05T09:03:51;10.20;99.90
7784;DHT22;19359;51.402;6.778;2023-01-05T09:06:19;10.60;99.90
7784;DHT22;19359;51.402;6.778;2023-01-05T09:08:45;10.40;93.90
7784;DHT22;19359;51.402;6.778;2023-01-05T09:11:14;10.30;97.10
7784;DHT22;19359;51.402;6.778;2023-01-05T09:13:45;10.40;72.50
7784;DHT22;19359;51.402;6.778;2023-01-05T09:16:15;10.60;41.20
7784;DHT22;19359;51.402;6.778;2023-01-05T09:18:43;10.50;1.00
7784;DHT22;19359;51.402;6.778;2023-01-05T09:21:10;10.50;1.00
7784;DHT22;19359;51.402;6.778;2023-01-05T09:23:37;10.60;31.30
7784;DHT22;19359;51.402;6.778;2023-01-05T09:26:05;10.70;9.70
7784;DHT22;19359;51.402;6.778;2023-01-05T09:28:32;10.50;1.00
7784;DHT22;19359;51.402;6.778;2023-01-05T09:31:07;10.60;1.00
7784;DHT22;19359;51.402;6.778;2023-01-05T09:33:34;10.60;1.00
7784;DHT22;19359;51.402;6.778;2023-01-05T09:36:01;10.70;1.00
7784;DHT22;19359;51.402;6.778;2023-01-05T09:38:28;10.50;1.00
7784;DHT22;19359;51.402;6.778;2023-01-05T09:40:57;10.50;1.00
7784;DHT22;19359;51.402;6.778;2023-01-05T09:43:32;10.60;1.00
7784;DHT22;19359;51.402;6.778;2023-01-05T09:46:00;10.70;1.00
7784;DHT22;19359;51.402;6.778;2023-01-05T09:48:35;10.90;1.00
7784;DHT22;19359;51.402;6.778;2023-01-05T09:51:02;10.70;1.00
7784;DHT22;19359;51.402;6.778;2023-01-05T09:53:29;10.80;1.00
7784;DHT22;19359;51.402;6.778;2023-01-05T09:55:56;10.40;1.00
7784;DHT22;19359;51.402;6.778;2023-01-05T09:58:26;10.80;1.00
7784;DHT22;19359;51.402;6.778;2023-01-05T10:01:05;10.80;1.00
7784;DHT22;19359;51.402;6.778;2023-01-05T10:03:36;10.80;1.00
7784;DHT22;19359;51.402;6.778;2023-01-05T10:06:06;10.80;1.00
7784;DHT22;19359;51.402;6.778;2023-01-05T10:08:39;10.60;1.00
7784;DHT22;19359;51.402;6.778;2023-01-05T10:11:11;10.80;1.00
7784;DHT22;19359;51.402;6.778;2023-01-05T10:14:01;11.00;1.00
7784;DHT22;19359;51.402;6.778;2023-01-05T10:16:31;11.00;1.00
7784;DHT22;19359;51.402;6.778;2023-01-05T10:18:59;10.90;1.00
7784;DHT22;19359;51.402;6.778;2023-01-05T10:21:32;10.70;1.00
7784;DHT22;19359;51.402;6.778;2023-01-05T10:24:12;10.70;1.00
7784;DHT22;19359;51.402;6.778;2023-01-05T10:26:46;10.80;1.00
7784;DHT22;19359;51.402;6.778;2023-01-05T10:29:19;11.10;1.00
7784;DHT22;19359;51.402;6.778;2023-01-05T10:31:54;11.20;1.00
7784;DHT22;19359;51.402;6.778;2023-01-05T10:34:27;11.00;1.00
7784;DHT22;19359;51.402;6.778;2023-01-05T10:37:06;11.20;1.00
7784;DHT22;19359;51.402;6.778;2023-01-05T10:39:49;10.50;1.00
7784;DHT22;19359;51.402;6.778;2023-01-05T10:42:27;11.20;1.00
7784;DHT22;19359;51.402;6.778;2023-01-05T10:44:58;11.10;1.00
7784;DHT22;19359;51.402;6.778;2023-01-05T10:47:29;11.20;1.00
7784;DHT22;19359;51.402;6.778;2023-01-05T10:49:58;11.10;1.00
7784;DHT22;19359;51.402;6.778;2023-01-05T10:52:26;11.60;1.00
7784;DHT22;19359;51.402;6.778;2023-01-05T10:54:56;11.40;1.00
7784;DHT22;19359;51.402;6.778;2023-01-05T10:57:38;11.40;1.00
7784;DHT22;19359;51.402;6.778;2023-01-05T11:00:12;11.60;1.00
7784;DHT22;19359;51.402;6.778;2023-01-05T11:02:41;11.60;1.00
7784;DHT22;19359;51.402;6.778;2023-01-05T11:05:29;11.40;1.00
7784;DHT22;19359;51.402;6.778;2023-01-05T11:07:58;11.80;1.00
7784;DHT22;19359;51.402;6.778;2023-01-05T11:10:29;11.30;1.00
7784;DHT22;19359;51.402;6.778;2023-01-05T11:13:02;11.30;1.00
7784;DHT22;19359;51.402;6.778;2023-01-05T11:15:31;11.30;1.00
7784;DHT22;19359;51.402;6.778;2023-01-05T11:17:58;11.40;1.00
7784;DHT22;19359;51.402;6.778;2023-01-05T11:20:27;11.60;1.00
7784;DHT22;19359;51.402;6.778;2023-01-05T11:22:54;11.40;1.00
7784;DHT22;19359;51.402;6.778;2023-01-05T11:25:28;11.60;1.00
7784;DHT22;19359;51.402;6.778;2023-01-05T11:28:12;11.30;1.00
7784;DHT22;19359;51.402;6.778;2023-01-05T11:30:46;11.60;1.00
7784;DHT22;19359;51.402;6.778;2023-01-05T11:33:23;11.50;1.00
7784;DHT22;19359;51.402;6.778;2023-01-05T11:35:52;11.50;1.00
7784;DHT22;19359;51.402;6.778;2023-01-05T11:38:22;11.40;1.00
7784;DHT22;19359;51.402;6.778;2023-01-05T11:40:49;11.60;1.00
7784;DHT22;19359;51.402;6.778;2023-01-05T11:43:18;11.60;1.00
7784;DHT22;19359;51.402;6.778;2023-01-05T11:45:48;11.70;1.00
7784;DHT22;19359;51.402;6.778;2023-01-05T11:48:18;11.60;1.00
7784;DHT22;19359;51.402;6.778;2023-01-05T11:50:47;11.60;1.00
7784;DHT22;19359;51.402;6.778;2023-01-05T11:53:23;11.60;1.00
7784;DHT22;19359;51.402;6.778;2023-01-05T11:55:58;11.70;1.00
7784;DHT22;19359;51.402;6.778;2023-01-05T11:58:30;12.30;1.00
7784;DHT22;19359;51.402;6.778;2023-01-05T12:01:31;12.00;1.00
7784;DHT22;19359;51.402;6.778;2023-01-05T12:04:03;11.80;1.00
7784;DHT22;19359;51.402;6.778;2023-01-05T12:06:51;11.90;1.00
7784;DHT22;19359;51.402;6.778;2023-01-05T12:09:29;11.90;1.00
7784;DHT22;19359;51.402;6.778;2023-01-05T12:12:09;11.70;1.00
7784;DHT22;19359;51.402;6.778;2023-01-05T12:14:59;12.00;1.00
7784;DHT22;19359;51.402;6.778;2023-01-05T12:17:42;11.90;1.00
7784;DHT22;19359;51.402;6.778;2023-01-05T12:20:25;12.00;1.00
7784;DHT22;19359;51.402;6.778;2023-01-05T12:26:07;11.80;1.00
7784;DHT22;19359;51.402;6.778;2023-01-05T12:28:50;11.90;1.00
7784;DHT22;19359;51.402;6.778;2023-01-05T12:31:42;12.60;1.00
7784;DHT22;19359;51.402;6.778;2023-01-05T12:34:30;11.80;1.00
7784;DHT22;19359;51.402;6.778;2023-01-05T12:37:20;11.80;1.00
7784;DHT22;19359;51.402;6.778;2023-01-05T12:40:07;11.90;1.00
7784;DHT22;19359;51.402;6.778;2023-01-05T12:42:56;11.80;1.00
7784;DHT22;19359;51.402;6.778;2023-01-05T12:45:41;11.90;1.00
7784;DHT22;19359;51.402;6.778;2023-01-05T12:48:14;11.90;1.00
7784;DHT22;19359;51.402;6.778;2023-01-05T12:50:45;12.00;1.00
7784;DHT22;19359;51.402;6.778;2023-01-05T12:53:21;12.00;1.00
7784;DHT22;19359;51.402;6.778;2023-01-05T12:55:53;12.70;1.00
7784;DHT22;19359;51.402;6.778;2023-01-05T12:58:26;11.80;1.00
7784;DHT22;19359;51.402;6.778;2023-01-05T13:00:55;11.80;1.00
7784;DHT22;19359;51.402;6.778;2023-01-05T13:03:28;11.80;1.00
7784;DHT22;19359;51.402;6.778;2023-01-05T13:06:01;12.00;1.00
7784;DHT22;19359;51.402;6.778;2023-01-05T13:08:36;11.90;1.00
7784;DHT22;19359;51.402;6.778;2023-01-05T13:11:07;11.90;1.00
7784;DHT22;19359;51.402;6.778;2023-01-05T13:13:38;12.00;1.00
7784;DHT22;19359;51.402;6.778;2023-01-05T13:16:12;12.00;1.00
7784;DHT22;19359;51.402;6.778;2023-01-05T13:18:43;11.90;1.00
7784;DHT22;19359;51.402;6.778;2023-01-05T13:21:12;12.10;1.00
7784;DHT22;19359;51.402;6.778;2023-01-05T13:23:42;12.00;1.00
7784;DHT22;19359;51.402;6.778;2023-01-05T13:26:13;11.90;1.00
7784;DHT22;19359;51.402;6.778;2023-01-05T13:28:42;12.00;1.00
7784;DHT22;19359;51.402;6.778;2023-01-05T13:34:44;11.80;1.00
7784;DHT22;19359;51.402;6.778;2023-01-05T13:37:28;11.90;1.00
7784;DHT22;19359;51.402;6.778;2023-01-05T13:40:07;11.80;1.00
7784;DHT22;19359;51.402;6.778;2023-01-05T13:42:47;11.90;1.00
7784;DHT22;19359;51.402;6.778;2023-01-05T13:45:43;12.10;1.00
7784;DHT22;19359;51.402;6.778;2023-01-05T13:48:38;12.10;1.00
7784;DHT22;19359;51.402;6.778;2023-01-05T13:51:22;12.00;1.00
7784;DHT22;19359;51.402;6.778;2023-01-05T13:53:53;11.80;1.00
7784;DHT22;19359;51.402;6.778;2023-01-05T13:56:23;12.00;1.00
7784;DHT22;19359;51.402;6.778;2023-01-05T13:58:56;11.90;1.00
7784;DHT22;19359;51.402;6.778;2023-01-05T14:01:34;12.00;1.00
7784;DHT22;19359;51.402;6.778;2023-01-05T14:04:03;12.00;1.00
7784;DHT22;19359;51.402;6.778;2023-01-05T14:06:33;12.30;1.00
7784;DHT22;19359;51.402;6.778;2023-01-05T14:09:07;11.80;1.00
7784;DHT22;19359;51.402;6.778;2023-01-05T14:15:01;11.80;1.00
7784;DHT22;19359;51.402;6.778;2023-01-05T14:17:51;11.80;1.00
7784;DHT22;19359;51.402;6.778;2023-01-05T14:20:30;11.80;1.00
7784;DHT22;19359;51.402;6.778;2023-01-05T14:22:58;11.80;1.00
7784;DHT22;19359;51.402;6.778;2023-01-05T14:25:47;11.70;1.00
7784;DHT22;19359;51.402;6.778;2023-01-05T14:28:17;11.70;1.00
7784;DHT22;19359;51.402;6.778;2023-01-05T14:30:45;11.60;1.00
7784;DHT22;19359;51.402;6.778;2023-01-05T14:33:15;11.70;1.00
7784;DHT22;19359;51.402;6.778;2023-01-05T14:35:43;11.70;1.00
7784;DHT22;19359;51.402;6.778;2023-01-05T14:38:16;11.70;1.00
7784;DHT22;19359;51.402;6.778;2023-01-05T14:40:45;11.70;1.00
7784;DHT22;19359;51.402;6.778;2023-01-05T14:43:24;11.70;1.00
7784;DHT22;19359;51.402;6.778;2023-01-05T14:46:00;11.80;1.00
7784;DHT22;19359;51.402;6.778;2023-01-05T14:48:31;11.70;1.00
7784;DHT22;19359;51.402;6.778;2023-01-05T14:51:17;11.70;1.00
7784;DHT22;19359;51.402;6.778;2023-01-05T14:53:46;11.70;1.00
7784;DHT22;19359;51.402;6.778;2023-01-05T14:56:17;11.70;1.00
7784;DHT22;19359;51.402;6.778;2023-01-05T14:58:57;11.60;1.00
7784;DHT22;19359;51.402;6.778;2023-01-05T15:01:27;11.60;1.00
7784;DHT22;19359;51.402;6.778;2023-01-05T15:04:05;11.60;1.00
7784;DHT22;19359;51.402;6.778;2023-01-05T15:06:49;11.50;1.00
7784;DHT22;19359;51.402;6.778;2023-01-05T15:09:38;11.40;1.00
7784;DHT22;19359;51.402;6.778;2023-01-05T15:12:22;11.50;1.00
7784;DHT22;19359;51.402;6.778;2023-01-05T15:15:14;12.20;1.00
7784;DHT22;19359;51.402;6.778;2023-01-05T15:17:55;11.30;1.00
7784;DHT22;19359;51.402;6.778;2023-01-05T15:21:03;11.30;1.00
7784;DHT22;19359;51.402;6.778;2023-01-05T15:23:52;11.20;1.00
7784;DHT22;19359;51.402;6.778;2023-01-05T15:26:34;11.20;1.00
7784;DHT22;19359;51.402;6.778;2023-01-05T15:29:24;11.20;1.00
7784;DHT22;19359;51.402;6.778;2023-01-05T15:31:56;11.20;1.00
7784;DHT22;19359;51.402;6.778;2023-01-05T15:34:28;11.10;1.00
7784;DHT22;19359;51.402;6.778;2023-01-05T15:37:07;11.10;1.00
7784;DHT22;19359;51.402;6.778;2023-01-05T15:39:44;11.10;1.00
7784;DHT22;19359;51.402;6.778;2023-01-05T15:42:15;11.00;1.00
7784;DHT22;19359;51.402;6.778;2023-01-05T15:44:48;11.00;1.00
7784;DHT22;19359;51.402;6.778;2023-01-05T15:47:17;11.90;1.00
7784;DHT22;19359;51.402;6.778;2023-01-05T15:49:45;11.00;1.00
7784;DHT22;19359;51.402;6.778;2023-01-05T15:52:20;11.00;1.00
7784;DHT22;19359;51.402;6.778;2023-01-05T15:54:57;11.10;1.00
7784;DHT22;19359;51.402;6.778;2023-01-05T15:57:24;11.00;1.00
7784;DHT22;19359;51.402;6.778;2023-01-05T15:59:51;10.90;1.00
7784;DHT22;19359;51.402;6.778;2023-01-05T16:02:22;10.90;1.00
7784;DHT22;19359;51.402;6.778;2023-01-05T16:05:07;10.90;1.00
7784;DHT22;19359;51.402;6.778;2023-01-05T16:07:40;10.80;1.00
7784;DHT22;19359;51.402;6.778;2023-01-05T16:10:15;10.80;1.00
7784;DHT22;19359;51.402;6.778;2023-01-05T16:12:42;10.80;1.00
7784;DHT22;19359;51.402;6.778;2023-01-05T16:15:13;11.10;1.00
7784;DHT22;19359;51.402;6.778;2023-01-05T16:17:41;10.80;1.00
7784;DHT22;19359;51.402;6.778;2023-01-05T16:20:13;10.70;1.00
7784;DHT22;19359;51.402;6.778;2023-01-05T16:22:45;10.90;1.00
7784;DHT22;19359;51.402;6.778;2023-01-05T16:25:20;10.60;1.00
7784;DHT22;19359;51.402;6.778;2023-01-05T16:27:50;10.70;1.00
7784;DHT22;19359;51.402;6.778;2023-01-05T16:30:27;10.90;1.00
7784;DHT22;19359;51.402;6.778;2023-01-05T16:32:56;10.60;1.00
7784;DHT22;19359;51.402;6.778;2023-01-05T16:35:29;10.90;1.00
7784;DHT22;19359;51.402;6.778;2023-01-05T16:38:23;10.80;1.00
7784;DHT22;19359;51.402;6.778;2023-01-05T16:43:54;10.60;1.00
7784;DHT22;19359;51.402;6.778;2023-01-05T16:46:34;10.70;1.00
7784;DHT22;19359;51.402;6.778;2023-01-05T16:49:25;10.50;1.00
7784;DHT22;19359;51.402;6.778;2023-01-05T16:51:53;10.40;1.00
7784;DHT22;19359;51.402;6.778;2023-01-05T16:54:23;10.20;1.00
7784;DHT22;19359;51.402;6.778;2023-01-05T16:56:54;10.50;12.00